createdAt,value
2019-04-14T00:01:50.114Z,4.00
2019-04-14T00:04:22.609Z,4.00
2019-04-14T00:06:52.509Z,4.00
2019-04-14T00:09:22.607Z,4.00
2019-04-14T00:11:52.574Z,4.00
2019-04-14T00:14:22.780Z,3.90
2019-04-14T00:16:51.727Z,4.00
2019-04-14T00:19:21.496Z,4.00
2019-04-14T00:21:50.569Z,4.00
2019-04-14T00:24:20.525Z,4.00
2019-04-14T00:26:51.026Z,4.10
2019-04-14T00:29:19.888Z,4.10
2019-04-14T00:31:51.887Z,4.20
2019-04-14T00:34:37.634Z,4.20
2019-04-14T00:37:31.722Z,4.20
2019-04-14T00:40:08.317Z,4.30
2019-04-14T00:42:52.366Z,4.30
2019-04-14T00:45:38.301Z,4.30
2019-04-14T00:48:09.622Z,4.30
2019-04-14T00:50:34.225Z,4.40
2019-04-14T00:53:03.500Z,4.40
2019-04-14T00:55:33.555Z,4.40
2019-04-14T00:58:03.771Z,4.40
2019-04-14T01:00:33.935Z,4.40
2019-04-14T01:03:03.163Z,4.50
2019-04-14T01:05:34.401Z,4.50
2019-04-14T01:08:03.127Z,4.40
2019-04-14T01:10:32.214Z,4.40
2019-04-14T01:13:01.055Z,4.50
2019-04-14T01:15:31.163Z,4.50
2019-04-14T01:18:01.503Z,4.50
2019-04-14T01:20:31.749Z,4.50
2019-04-14T01:23:00.624Z,4.50
2019-04-14T01:25:30.309Z,4.50
2019-04-14T01:28:00.222Z,4.40
2019-04-14T01:30:30.619Z,4.40
2019-04-14T01:32:59.463Z,4.50
2019-04-14T01:35:29.224Z,4.50
2019-04-14T01:37:59.345Z,4.50
2019-04-14T01:40:29.260Z,4.50
2019-04-14T01:42:59.435Z,4.50
2019-04-14T01:45:29.606Z,4.60
2019-04-14T01:47:59.500Z,4.60
2019-04-14T01:50:47.363Z,4.60
2019-04-14T01:53:23.428Z,4.60
2019-04-14T01:55:59.195Z,4.70
2019-04-14T01:58:47.211Z,4.70
2019-04-14T02:01:23.839Z,4.70
2019-04-14T02:03:52.752Z,4.50
2019-04-14T02:06:22.311Z,4.60
2019-04-14T02:08:52.197Z,4.50
2019-04-14T02:11:21.091Z,4.60
2019-04-14T02:13:50.852Z,4.50
2019-04-14T02:16:29.212Z,4.50
2019-04-14T02:18:53.183Z,4.40
2019-04-14T02:21:21.606Z,4.50
2019-04-14T02:23:51.774Z,4.50
2019-04-14T02:26:22.015Z,4.50
2019-04-14T02:28:50.894Z,4.50
2019-04-14T02:31:39.383Z,4.50
2019-04-14T02:36:48.005Z,4.40
2019-04-14T02:39:20.992Z,4.40
2019-04-14T02:44:23.570Z,4.50
2019-04-14T02:47:01.422Z,4.50
2019-04-14T02:49:22.622Z,4.40
2019-04-14T02:57:02.081Z,4.20
2019-04-14T02:59:22.381Z,4.10
2019-04-14T03:02:20.788Z,3.90
2019-04-14T03:04:27.716Z,3.90
2019-04-14T03:06:55.064Z,3.80
2019-04-14T03:09:38.147Z,3.80
2019-04-14T03:14:34.194Z,3.80
2019-04-14T03:17:21.763Z,3.70
2019-04-14T03:20:17.094Z,3.60
2019-04-14T03:25:16.036Z,3.60
2019-04-14T03:28:06.839Z,3.60
2019-04-14T03:30:58.637Z,3.60
2019-04-14T03:33:31.768Z,3.50
2019-04-14T03:38:12.847Z,3.50
2019-04-14T03:40:33.775Z,3.50
2019-04-14T03:45:43.428Z,3.50
2019-04-14T03:48:35.833Z,3.50
2019-04-14T03:50:39.369Z,3.50
2019-04-14T03:53:17.520Z,3.50
2019-04-14T03:55:41.662Z,3.60
2019-04-14T03:58:03.516Z,3.50
2019-04-14T04:00:33.486Z,3.40
2019-04-14T04:03:02.428Z,3.50
2019-04-14T04:05:32.365Z,3.40
2019-04-14T04:08:01.204Z,3.40
2019-04-14T04:10:31.221Z,3.40
2019-04-14T04:13:00.569Z,3.50
2019-04-14T04:15:30.045Z,3.60
2019-04-14T04:18:05.390Z,3.50
2019-04-14T04:20:56.650Z,3.50
2019-04-14T04:23:31.815Z,3.50
2019-04-14T04:26:12.812Z,3.40
2019-04-14T04:29:00.696Z,3.30
2019-04-14T04:31:39.967Z,3.30
2019-04-14T04:34:14.101Z,3.30
2019-04-14T04:36:55.392Z,3.30
2019-04-14T04:39:28.050Z,3.30
2019-04-14T04:41:57.907Z,3.30
2019-04-14T04:44:27.036Z,3.10
2019-04-14T04:46:56.957Z,3.10
2019-04-14T04:49:28.154Z,3.10
2019-04-14T04:51:57.267Z,3.10
2019-04-14T04:54:26.352Z,3.20
2019-04-14T04:56:55.890Z,3.00
2019-04-14T04:59:25.547Z,3.00
2019-04-14T05:01:55.821Z,3.00
2019-04-14T05:04:26.514Z,3.00
2019-04-14T05:07:01.308Z,3.10
2019-04-14T05:09:49.115Z,3.00
2019-04-14T05:12:24.075Z,3.00
2019-04-14T05:15:03.343Z,3.00
2019-04-14T05:17:32.807Z,3.00
2019-04-14T05:20:01.607Z,3.10
2019-04-14T05:22:31.117Z,3.00
2019-04-14T05:24:59.963Z,3.00
2019-04-14T05:27:29.844Z,3.00
2019-04-14T05:29:58.650Z,3.00
2019-04-14T05:32:28.373Z,3.00
2019-04-14T05:34:57.284Z,3.00
2019-04-14T05:37:26.857Z,3.00
2019-04-14T05:39:56.887Z,3.00
2019-04-14T05:42:27.229Z,3.00
2019-04-14T05:44:56.247Z,3.00
2019-04-14T05:47:26.199Z,3.00
2019-04-14T05:49:57.498Z,3.10
2019-04-14T05:52:25.536Z,3.10
2019-04-14T05:54:55.702Z,3.10
2019-04-14T05:57:26.234Z,3.00
2019-04-14T05:59:55.120Z,3.10
2019-04-14T06:02:24.750Z,3.10
2019-04-14T06:04:55.019Z,3.10
2019-04-14T06:07:23.829Z,3.00
2019-04-14T06:09:52.562Z,3.10
2019-04-14T06:12:21.370Z,3.10
2019-04-14T06:14:50.176Z,3.10
2019-04-14T06:17:19.387Z,3.10
2019-04-14T06:19:48.164Z,3.00
2019-04-14T06:22:17.261Z,3.10
2019-04-14T06:24:46.285Z,3.20
2019-04-14T06:27:15.098Z,3.10
2019-04-14T06:29:44.265Z,3.10
2019-04-14T06:32:28.644Z,3.10
2019-04-14T06:35:15.597Z,3.20
2019-04-14T06:37:51.526Z,3.20
2019-04-14T06:40:20.679Z,3.20
2019-04-14T06:42:49.451Z,3.10
2019-04-14T06:45:18.546Z,3.10
2019-04-14T06:47:47.316Z,3.10
2019-04-14T06:50:16.138Z,3.00
2019-04-14T06:52:44.884Z,3.10
2019-04-14T06:55:13.663Z,3.10
2019-04-14T06:57:42.408Z,3.00
2019-04-14T07:00:11.150Z,3.00
2019-04-14T07:02:39.899Z,3.00
2019-04-14T07:05:09.048Z,3.10
2019-04-14T07:07:38.080Z,3.00
2019-04-14T07:10:07.022Z,3.00
2019-04-14T07:12:35.942Z,3.00
2019-04-14T07:15:05.514Z,3.00
2019-04-14T07:17:34.327Z,3.10
2019-04-14T07:20:03.680Z,3.00
2019-04-14T07:22:32.736Z,3.10
2019-04-14T07:25:03.928Z,3.20
2019-04-14T07:27:34.278Z,3.00
2019-04-14T07:30:20.355Z,3.00
2019-04-14T07:32:54.995Z,3.10
2019-04-14T07:35:41.924Z,3.00
2019-04-14T07:38:15.553Z,3.10
2019-04-14T07:41:04.749Z,3.20
2019-04-14T07:43:51.358Z,3.20
2019-04-14T07:46:38.066Z,3.20
2019-04-14T07:49:17.683Z,3.30
2019-04-14T07:52:05.572Z,3.40
2019-04-14T07:54:41.361Z,3.30
2019-04-14T07:57:50.622Z,3.40
2019-04-14T08:00:56.660Z,3.40
2019-04-14T08:04:29.711Z,3.40
2019-04-14T08:07:07.956Z,3.50
2019-04-14T08:09:39.373Z,3.40
2019-04-14T08:12:56.317Z,3.40
2019-04-14T08:15:31.354Z,3.50
2019-04-14T08:18:05.869Z,3.60
2019-04-14T08:20:59.656Z,3.60
2019-04-14T08:23:48.314Z,3.60
2019-04-14T08:26:59.817Z,3.60
2019-04-14T08:29:52.428Z,3.70
2019-04-14T08:32:42.476Z,3.70
2019-04-14T08:35:13.866Z,3.70
2019-04-14T08:37:44.021Z,3.80
2019-04-14T08:40:13.349Z,3.80
2019-04-14T08:42:48.912Z,3.90
2019-04-14T08:45:23.013Z,3.90
2019-04-14T08:48:07.210Z,3.90
2019-04-14T08:50:41.844Z,3.90
2019-04-14T08:53:19.639Z,3.90
2019-04-14T08:56:08.858Z,3.90
2019-04-14T08:59:03.036Z,3.90
2019-04-14T09:01:46.027Z,4.00
2019-04-14T09:04:28.800Z,4.10
2019-04-14T09:07:11.236Z,4.00
2019-04-14T09:09:42.552Z,4.10
2019-04-14T09:12:16.800Z,4.10
2019-04-14T09:14:56.218Z,4.10
2019-04-14T09:17:16.321Z,4.10
2019-04-14T09:19:45.113Z,4.20
2019-04-14T09:22:14.358Z,4.30
2019-04-14T09:24:43.104Z,4.30
2019-04-14T09:27:11.940Z,4.40
2019-04-14T09:29:40.956Z,4.40
2019-04-14T09:32:11.368Z,4.50
2019-04-14T09:34:40.202Z,4.50
2019-04-14T09:37:08.985Z,4.50
2019-04-14T09:39:37.792Z,4.40
2019-04-14T09:42:06.582Z,4.40
2019-04-14T09:44:35.401Z,4.40
2019-04-14T09:47:04.570Z,4.60
2019-04-14T09:49:33.374Z,4.60
2019-04-14T09:52:02.485Z,4.70
2019-04-14T09:54:31.482Z,4.70
2019-04-14T09:57:00.245Z,4.70
2019-04-14T09:59:29.375Z,4.60
2019-04-14T10:01:58.215Z,4.70
2019-04-14T10:04:27.182Z,4.80
2019-04-14T10:06:55.947Z,4.80
2019-04-14T10:09:25.044Z,4.90
2019-04-14T10:11:56.441Z,4.90
2019-04-14T10:14:24.961Z,5.00
2019-04-14T10:16:54.036Z,5.10
2019-04-14T10:19:22.988Z,5.20
2019-04-14T10:21:51.848Z,5.20
2019-04-14T10:24:20.711Z,5.30
2019-04-14T10:26:49.515Z,5.20
2019-04-14T10:29:18.263Z,5.30
2019-04-14T10:31:47.539Z,5.30
2019-04-14T10:34:16.310Z,5.40
2019-04-14T10:36:45.064Z,5.30
2019-04-14T10:39:13.871Z,5.40
2019-04-14T10:41:42.724Z,5.50
2019-04-14T10:44:11.590Z,5.50
2019-04-14T10:46:40.503Z,5.50
2019-04-14T10:49:09.319Z,5.60
2019-04-14T10:51:38.116Z,5.60
2019-04-14T10:54:06.941Z,5.60
2019-04-14T10:56:35.987Z,5.70
2019-04-14T10:59:04.985Z,5.80
2019-04-14T11:01:34.300Z,5.90
2019-04-14T11:04:03.073Z,5.80
2019-04-14T11:06:37.971Z,5.90
2019-04-14T11:09:08.983Z,6.00
2019-04-14T11:11:37.790Z,6.10
2019-04-14T11:14:07.003Z,6.30
2019-04-14T11:16:35.769Z,6.40
2019-04-14T11:19:04.582Z,6.30
2019-04-14T11:21:42.376Z,6.40
2019-04-14T11:24:04.239Z,6.40
2019-04-14T11:26:33.282Z,6.50
2019-04-14T11:29:02.172Z,6.50
2019-04-14T11:31:48.737Z,6.50
2019-04-14T11:34:18.657Z,6.50
2019-04-14T11:37:05.636Z,6.50
2019-04-14T11:39:34.463Z,6.80
2019-04-14T11:42:03.363Z,7.20
2019-04-14T11:44:32.137Z,7.20
2019-04-14T11:47:01.170Z,7.10
2019-04-14T11:49:30.214Z,7.10
2019-04-14T11:51:59.298Z,7.10
2019-04-14T11:54:28.331Z,7.10
2019-04-14T11:56:57.388Z,7.00
2019-04-14T11:59:37.932Z,7.20
2019-04-14T12:02:15.420Z,7.30
2019-04-14T12:04:49.299Z,7.30
2019-04-14T12:07:49.240Z,7.30
2019-04-14T12:10:21.816Z,7.40
2019-04-14T12:12:50.598Z,7.30
2019-04-14T12:15:19.858Z,7.40
2019-04-14T12:17:48.640Z,7.70
2019-04-14T12:20:17.504Z,7.90
2019-04-14T12:22:46.292Z,7.90
2019-04-14T12:25:15.361Z,7.80
2019-04-14T12:27:44.638Z,8.00
2019-04-14T12:30:13.780Z,8.20
2019-04-14T12:32:42.908Z,8.10
2019-04-14T12:35:13.049Z,8.00
2019-04-14T12:37:42.231Z,7.80
2019-04-14T12:40:11.116Z,7.70
2019-04-14T12:42:57.345Z,7.70
2019-04-14T12:45:44.039Z,7.90
2019-04-14T12:48:25.487Z,8.10
2019-04-14T12:50:58.494Z,8.60
2019-04-14T12:53:27.363Z,8.90
2019-04-14T12:55:56.181Z,9.10
2019-04-14T12:58:35.006Z,9.10
2019-04-14T13:01:08.725Z,9.10
2019-04-14T13:03:41.905Z,9.00
2019-04-14T13:06:10.048Z,8.90
2019-04-14T13:08:38.870Z,8.90
2019-04-14T13:11:07.979Z,9.10
2019-04-14T13:13:37.126Z,9.00
2019-04-14T13:16:06.036Z,9.10
2019-04-14T13:18:35.083Z,9.10
2019-04-14T13:21:03.931Z,9.10
2019-04-14T13:23:32.771Z,9.00
2019-04-14T13:26:01.842Z,9.10
2019-04-14T13:28:31.220Z,9.10
2019-04-14T13:31:00.058Z,9.20
2019-04-14T13:33:28.846Z,9.20
2019-04-14T13:35:57.798Z,9.20
2019-04-14T13:38:26.643Z,9.40
2019-04-14T13:40:55.880Z,9.70
2019-04-14T13:43:25.007Z,10.20
2019-04-14T13:45:54.091Z,10.20
2019-04-14T13:48:23.100Z,10.40
2019-04-14T13:50:51.905Z,10.40
2019-04-14T13:53:20.796Z,10.00
2019-04-14T13:55:49.672Z,10.00
2019-04-14T13:58:18.898Z,10.10
2019-04-14T14:00:47.991Z,10.00
2019-04-14T14:03:16.751Z,10.10
2019-04-14T14:05:45.888Z,10.10
2019-04-14T14:08:14.988Z,10.50
2019-04-14T14:10:43.860Z,11.10
2019-04-14T14:13:34.644Z,11.80
2019-04-14T14:16:17.320Z,12.10
2019-04-14T14:18:54.264Z,12.40
2019-04-14T14:21:38.005Z,12.20
2019-04-14T14:24:21.140Z,12.20
2019-04-14T14:26:52.574Z,12.30
2019-04-14T14:29:21.632Z,12.20
2019-04-14T14:31:50.915Z,11.80
2019-04-14T14:34:19.803Z,11.60
2019-04-14T14:36:48.692Z,11.20
2019-04-14T14:39:20.553Z,11.10
2019-04-14T14:41:49.704Z,11.20
2019-04-14T14:44:18.736Z,11.10
2019-04-14T14:47:08.264Z,11.10
2019-04-14T14:49:54.755Z,11.10
2019-04-14T14:52:23.564Z,11.10
2019-04-14T14:54:52.376Z,11.00
2019-04-14T14:57:21.167Z,10.80
2019-04-14T14:59:50.159Z,10.70
2019-04-14T15:02:19.066Z,10.70
2019-04-14T15:04:47.972Z,10.80
2019-04-14T15:07:16.875Z,10.90
2019-04-14T15:09:45.977Z,10.90
2019-04-14T15:12:15.226Z,10.90
2019-04-14T15:14:44.069Z,10.90
2019-04-14T15:17:12.899Z,11.00
2019-04-14T15:19:41.743Z,11.00
2019-04-14T15:22:10.809Z,11.10
2019-04-14T15:24:39.680Z,11.00
2019-04-14T15:27:08.523Z,11.10
2019-04-14T15:29:37.444Z,11.20
2019-04-14T15:32:09.011Z,11.20
2019-04-14T15:34:37.856Z,11.20
2019-04-14T15:37:06.968Z,11.00
2019-04-14T15:39:37.636Z,10.90
2019-04-14T15:42:06.480Z,10.90
2019-04-14T15:44:35.320Z,10.90
2019-04-14T15:47:05.264Z,10.80
2019-04-14T15:49:34.571Z,10.80
2019-04-14T15:52:04.178Z,10.70
2019-04-14T15:54:33.401Z,10.70
2019-04-14T15:57:19.042Z,10.70
2019-04-14T16:00:10.063Z,10.70
2019-04-14T16:02:48.227Z,10.80
2019-04-14T16:05:27.711Z,10.90
2019-04-14T16:08:13.895Z,10.90
2019-04-14T16:10:53.020Z,10.90
2019-04-14T16:13:26.146Z,11.00
2019-04-14T16:16:01.123Z,10.90
2019-04-14T16:18:45.595Z,10.90
2019-04-14T16:21:14.490Z,10.80
2019-04-14T16:23:50.514Z,10.70
2019-04-14T16:26:28.384Z,10.80
2019-04-14T16:29:16.912Z,10.70
2019-04-14T16:31:58.458Z,10.70
2019-04-14T16:34:30.860Z,10.70
2019-04-14T16:36:59.681Z,10.70
2019-04-14T16:39:28.534Z,10.70
2019-04-14T16:41:57.303Z,10.70
2019-04-14T16:44:26.347Z,10.60
2019-04-14T16:46:55.158Z,10.60
2019-04-14T16:49:24.004Z,10.70
2019-04-14T16:52:01.387Z,10.70
2019-04-14T16:54:52.384Z,10.70
2019-04-14T16:57:48.694Z,10.80
2019-04-14T17:00:25.038Z,10.80
2019-04-14T17:02:54.572Z,10.80
2019-04-14T17:05:23.600Z,10.80
2019-04-14T17:07:53.724Z,10.80
2019-04-14T17:10:22.705Z,10.70
2019-04-14T17:12:51.579Z,10.70
2019-04-14T17:15:42.760Z,10.70
2019-04-14T17:18:18.343Z,10.70
2019-04-14T17:21:04.593Z,10.60
2019-04-14T17:23:37.811Z,10.60
2019-04-14T17:26:21.298Z,10.60
2019-04-14T17:29:09.187Z,10.60
2019-04-14T17:31:55.890Z,10.50
2019-04-14T17:34:30.900Z,10.50
2019-04-14T17:37:18.856Z,10.50
2019-04-14T17:40:01.957Z,10.50
2019-04-14T17:42:45.306Z,10.40
2019-04-14T17:45:39.186Z,10.40
2019-04-14T17:48:13.426Z,10.30
2019-04-14T17:50:50.654Z,10.30
2019-04-14T17:53:23.621Z,10.30
2019-04-14T17:56:05.539Z,10.20
2019-04-14T17:58:45.868Z,10.20
2019-04-14T18:01:26.860Z,10.20
2019-04-14T18:03:59.819Z,10.20
2019-04-14T18:06:33.715Z,10.20
2019-04-14T18:09:23.892Z,10.10
2019-04-14T18:12:19.229Z,10.10
2019-04-14T18:15:04.824Z,10.10
2019-04-14T18:17:40.947Z,10.10
2019-04-14T18:20:18.059Z,10.00
2019-04-14T18:22:47.135Z,10.00
2019-04-14T18:25:16.436Z,9.90
2019-04-14T18:27:57.956Z,9.90
2019-04-14T18:30:33.214Z,9.80
2019-04-14T18:33:30.949Z,9.90
2019-04-14T18:36:04.036Z,9.80
2019-04-14T18:38:46.211Z,9.70
2019-04-14T18:41:34.350Z,9.70
2019-04-14T18:44:11.326Z,9.70
2019-04-14T18:46:59.253Z,9.60
2019-04-14T18:49:44.795Z,9.50
2019-04-14T18:52:18.668Z,9.50
2019-04-14T18:54:59.879Z,9.50
2019-04-14T18:57:48.084Z,9.40
2019-04-14T19:00:31.137Z,9.30
2019-04-14T19:03:00.043Z,9.30
2019-04-14T19:05:29.054Z,9.20
2019-04-14T19:07:57.918Z,9.20
2019-04-14T19:10:26.795Z,9.10
2019-04-14T19:13:10.698Z,9.00
2019-04-14T19:16:01.768Z,9.00
2019-04-14T19:18:42.563Z,9.00
2019-04-14T19:21:23.303Z,8.90
2019-04-14T19:23:52.402Z,8.90
2019-04-14T19:26:21.262Z,8.80
2019-04-14T19:28:50.579Z,8.80
2019-04-14T19:31:19.367Z,8.80
2019-04-14T19:33:48.192Z,8.70
2019-04-14T19:36:17.029Z,8.70
2019-04-14T19:38:46.041Z,8.60
2019-04-14T19:41:14.850Z,8.60
2019-04-14T19:43:43.885Z,8.60
2019-04-14T19:46:12.637Z,8.50
2019-04-14T19:48:41.750Z,8.50
2019-04-14T19:51:10.629Z,8.50
2019-04-14T19:53:39.674Z,8.40
2019-04-14T19:56:08.470Z,8.40
2019-04-14T19:58:37.487Z,8.30
2019-04-14T20:01:07.278Z,8.30
2019-04-14T20:03:36.203Z,8.20
2019-04-14T20:06:05.591Z,8.20
2019-04-14T20:08:34.344Z,8.10
2019-04-14T20:11:03.298Z,8.00
2019-04-14T20:13:36.723Z,7.90
2019-04-14T20:16:22.812Z,7.90
2019-04-14T20:19:10.741Z,7.80
2019-04-14T20:22:00.877Z,7.70
2019-04-14T20:24:34.142Z,7.60
2019-04-14T20:27:18.250Z,7.50
2019-04-14T20:29:50.191Z,7.50
2019-04-14T20:32:22.329Z,7.50
2019-04-14T20:34:51.187Z,7.40
2019-04-14T20:37:20.092Z,7.30
2019-04-14T20:39:49.021Z,7.30
2019-04-14T20:42:18.281Z,7.20
2019-04-14T20:44:47.854Z,7.10
2019-04-14T20:47:17.231Z,7.00
2019-04-14T20:49:46.145Z,7.00
2019-04-14T20:52:15.733Z,6.90
2019-04-14T20:54:45.452Z,6.80
2019-04-14T20:57:14.319Z,6.80
2019-04-14T20:59:43.294Z,6.80
2019-04-14T21:02:29.957Z,6.80
2019-04-14T21:05:24.428Z,6.80
2019-04-14T21:08:21.436Z,6.80
2019-04-14T21:10:57.713Z,6.70
2019-04-14T21:13:46.042Z,6.70
2019-04-14T21:16:26.119Z,6.70
2019-04-14T21:19:13.050Z,6.60
2019-04-14T21:21:47.463Z,6.60
2019-04-14T21:24:28.896Z,6.60
2019-04-14T21:27:08.530Z,6.60
2019-04-14T21:29:45.251Z,6.60
2019-04-14T21:32:20.211Z,6.50
2019-04-14T21:35:03.380Z,6.50
2019-04-14T21:37:43.530Z,6.50
2019-04-14T21:40:19.658Z,6.40
2019-04-14T21:42:48.699Z,6.40
2019-04-14T21:45:17.515Z,6.40
2019-04-14T21:47:46.342Z,6.40
2019-04-14T21:50:15.647Z,6.30
2019-04-14T21:52:49.332Z,6.30
2019-04-14T21:55:16.926Z,6.20
2019-04-14T21:58:04.859Z,6.10
2019-04-14T22:01:49.015Z,6.00
2019-04-14T22:04:39.035Z,6.00
2019-04-14T22:07:18.645Z,5.90
2019-04-14T22:09:47.708Z,5.80
2019-04-14T22:12:16.527Z,5.70
2019-04-14T22:14:45.708Z,5.70
2019-04-14T22:17:14.875Z,5.60
2019-04-14T22:19:43.979Z,5.60
2019-04-14T22:22:12.876Z,5.50
2019-04-14T22:24:41.728Z,5.50
2019-04-14T22:27:10.685Z,5.40
2019-04-14T22:29:39.695Z,5.40
2019-04-14T22:32:08.957Z,5.30
2019-04-14T22:34:37.798Z,5.20
2019-04-14T22:37:06.927Z,5.20
2019-04-14T22:39:35.827Z,5.10
2019-04-14T22:42:04.648Z,5.00
2019-04-14T22:44:33.754Z,5.00
2019-04-14T22:47:03.152Z,5.00
2019-04-14T22:49:32.503Z,5.00
2019-04-14T22:52:01.664Z,4.90
2019-04-14T22:54:30.658Z,4.90
2019-04-14T22:56:59.719Z,4.90
2019-04-14T22:59:28.487Z,4.80
2019-04-14T23:02:05.047Z,4.80
2019-04-14T23:04:42.923Z,4.70
2019-04-14T23:07:28.836Z,4.70
2019-04-14T23:10:26.703Z,4.60
2019-04-14T23:13:09.115Z,4.50
2019-04-14T23:15:53.481Z,4.50
2019-04-14T23:18:26.726Z,4.50
2019-04-14T23:21:07.740Z,4.50
2019-04-14T23:23:56.417Z,4.50
2019-04-14T23:26:25.361Z,4.50
2019-04-14T23:28:54.486Z,4.40
2019-04-14T23:31:23.302Z,4.40
2019-04-14T23:33:52.167Z,4.30
2019-04-14T23:36:21.009Z,4.20
2019-04-14T23:38:49.816Z,4.10
2019-04-14T23:41:18.631Z,4.00
2019-04-14T23:43:47.417Z,4.00
2019-04-14T23:46:16.265Z,4.00
2019-04-14T23:48:45.380Z,3.90
2019-04-14T23:51:14.504Z,3.90
2019-04-14T23:53:43.755Z,3.80
2019-04-14T23:56:12.718Z,3.70
2019-04-14T23:58:42.129Z,3.70
